sensor_id;sensor_type;location;lat;lon;timestamp;pressure;altitude;pressure_sealevel;temperature;humidity
68656;BME280;55638;51.122;13.606;2023-05-02T00:00:13;99948.19;;;11.62;49.59
68656;BME280;55638;51.122;13.606;2023-05-02T00:01:45;99941.06;;;11.60;49.43
68656;BME280;55638;51.122;13.606;2023-05-02T00:03:17;99945.50;;;11.62;49.55
68656;BME280;55638;51.122;13.606;2023-05-02T00:04:49;99941.97;;;11.61;49.61
68656;BME280;55638;51.122;13.606;2023-05-02T00:06:20;99947.34;;;11.61;49.31
68656;BME280;55638;51.122;13.606;2023-05-02T00:07:53;99942.94;;;11.60;49.43
68656;BME280;55638;51.122;13.606;2023-05-02T00:09:25;99939.25;;;11.61;49.47
68656;BME280;55638;51.122;13.606;2023-05-02T00:10:56;99947.47;;;11.59;49.54
68656;BME280;55638;51.122;13.606;2023-05-02T00:12:28;99947.34;;;11.61;49.51
68656;BME280;55638;51.122;13.606;2023-05-02T00:14:00;99946.63;;;11.59;49.65
68656;BME280;55638;51.122;13.606;2023-05-02T00:15:32;99941.22;;;11.59;49.67
68656;BME280;55638;51.122;13.606;2023-05-02T00:17:04;99939.53;;;11.58;49.64
68656;BME280;55638;51.122;13.606;2023-05-02T00:18:36;99942.22;;;11.58;49.88
68656;BME280;55638;51.122;13.606;2023-05-02T00:20:11;99949.59;;;11.56;50.28
68656;BME280;55638;51.122;13.606;2023-05-02T00:21:46;99949.59;;;11.56;50.50
68656;BME280;55638;51.122;13.606;2023-05-02T00:23:18;99955.00;;;11.56;49.86
68656;BME280;55638;51.122;13.606;2023-05-02T00:24:55;99952.47;;;11.54;50.71
68656;BME280;55638;51.122;13.606;2023-05-02T00:26:27;99946.19;;;11.54;50.03
68656;BME280;55638;51.122;13.606;2023-05-02T00:27:59;99953.44;;;11.53;49.97
68656;BME280;55638;51.122;13.606;2023-05-02T00:29:31;99957.97;;;11.53;49.97
68656;BME280;55638;51.122;13.606;2023-05-02T00:31:03;99956.41;;;11.50;49.87
68656;BME280;55638;51.122;13.606;2023-05-02T00:32:35;99957.41;;;11.49;50.12
68656;BME280;55638;51.122;13.606;2023-05-02T00:34:07;99967.38;;;11.49;50.15
68656;BME280;55638;51.122;13.606;2023-05-02T00:35:39;99963.09;;;11.46;50.22
68656;BME280;55638;51.122;13.606;2023-05-02T00:37:11;99952.44;;;11.45;50.00
68656;BME280;55638;51.122;13.606;2023-05-02T00:38:44;99955.16;;;11.45;49.95
68656;BME280;55638;51.122;13.606;2023-05-02T00:40:16;99951.72;;;11.43;49.89
68656;BME280;55638;51.122;13.606;2023-05-02T00:41:55;99957.13;;;11.43;50.29
68656;BME280;55638;51.122;13.606;2023-05-02T00:43:29;99959.81;;;11.43;50.20
68656;BME280;55638;51.122;13.606;2023-05-02T00:45:02;99953.41;;;11.44;50.06
68656;BME280;55638;51.122;13.606;2023-05-02T00:46:37;99955.16;;;11.45;49.82
68656;BME280;55638;51.122;13.606;2023-05-02T00:48:10;99955.28;;;11.43;50.13
68656;BME280;55638;51.122;13.606;2023-05-02T00:49:42;99959.66;;;11.44;50.17
68656;BME280;55638;51.122;13.606;2023-05-02T00:51:14;99952.56;;;11.43;50.00
68656;BME280;55638;51.122;13.606;2023-05-02T00:52:46;99956.13;;;11.44;50.09
68656;BME280;55638;51.122;13.606;2023-05-02T00:54:18;99952.56;;;11.43;50.11
68656;BME280;55638;51.122;13.606;2023-05-02T00:55:49;99950.72;;;11.44;50.25
68656;BME280;55638;51.122;13.606;2023-05-02T00:57:21;99956.13;;;11.44;50.16
68656;BME280;55638;51.122;13.606;2023-05-02T00:58:54;99952.56;;;11.43;50.18
68656;BME280;55638;51.122;13.606;2023-05-02T01:02:29;99950.03;;;11.42;51.05
68656;BME280;55638;51.122;13.606;2023-05-02T01:04:22;99945.75;;;11.39;50.82
68656;BME280;55638;51.122;13.606;2023-05-02T01:08:02;99940.47;;;11.38;51.04
68656;BME280;55638;51.122;13.606;2023-05-02T01:12:06;99940.47;;;11.38;50.66
68656;BME280;55638;51.122;13.606;2023-05-02T01:13:42;99942.22;;;11.39;49.90
68656;BME280;55638;51.122;13.606;2023-05-02T01:15:16;99933.13;;;11.40;49.87
68656;BME280;55638;51.122;13.606;2023-05-02T01:16:51;99938.50;;;11.40;50.01
68656;BME280;55638;51.122;13.606;2023-05-02T01:18:24;99940.34;;;11.39;49.94
68656;BME280;55638;51.122;13.606;2023-05-02T01:20:02;99933.13;;;11.40;50.17
68656;BME280;55638;51.122;13.606;2023-05-02T01:21:36;99934.81;;;11.41;49.88
68656;BME280;55638;51.122;13.606;2023-05-02T01:29:04;99941.94;;;11.42;50.25
68656;BME280;55638;51.122;13.606;2023-05-02T01:30:37;99941.50;;;11.46;49.87
68656;BME280;55638;51.122;13.606;2023-05-02T01:32:11;99939.66;;;11.47;49.88
68656;BME280;55638;51.122;13.606;2023-05-02T01:33:46;99944.94;;;11.48;49.90
68656;BME280;55638;51.122;13.606;2023-05-02T01:35:20;99953.88;;;11.49;49.98
68656;BME280;55638;51.122;13.606;2023-05-02T01:36:53;99943.91;;;11.49;49.85
68656;BME280;55638;51.122;13.606;2023-05-02T01:38:30;99950.16;;;11.50;49.63
68656;BME280;55638;51.122;13.606;2023-05-02T01:40:04;99946.47;;;11.51;49.75
68656;BME280;55638;51.122;13.606;2023-05-02T01:41:39;99945.50;;;11.52;49.93
68656;BME280;55638;51.122;13.606;2023-05-02T01:43:14;99941.94;;;11.51;50.28
68656;BME280;55638;51.122;13.606;2023-05-02T01:44:48;99948.88;;;11.54;49.94
68656;BME280;55638;51.122;13.606;2023-05-02T01:46:23;99947.19;;;11.53;50.05
68656;BME280;55638;51.122;13.606;2023-05-02T01:47:56;99943.63;;;11.52;50.13
68656;BME280;55638;51.122;13.606;2023-05-02T01:49:29;99943.63;;;11.52;49.71
68656;BME280;55638;51.122;13.606;2023-05-02T01:51:04;99947.19;;;11.53;49.94
68656;BME280;55638;51.122;13.606;2023-05-02T01:52:37;99946.34;;;11.52;50.08
68656;BME280;55638;51.122;13.606;2023-05-02T01:54:10;99946.34;;;11.52;50.22
68656;BME280;55638;51.122;13.606;2023-05-02T01:55:44;99950.75;;;11.53;50.20
68656;BME280;55638;51.122;13.606;2023-05-02T01:57:17;99949.88;;;11.53;50.05
68656;BME280;55638;51.122;13.606;2023-05-02T01:58:51;99946.19;;;11.54;50.00
68656;BME280;55638;51.122;13.606;2023-05-02T02:00:24;99939.09;;;11.53;49.98
68656;BME280;55638;51.122;13.606;2023-05-02T02:02:00;99944.38;;;11.54;50.14
68656;BME280;55638;51.122;13.606;2023-05-02T02:03:33;99946.19;;;11.54;50.14
68656;BME280;55638;51.122;13.606;2023-05-02T02:05:06;99945.34;;;11.53;49.94
68656;BME280;55638;51.122;13.606;2023-05-02T02:06:45;99951.59;;;11.54;50.47
68656;BME280;55638;51.122;13.606;2023-05-02T02:08:19;99955.16;;;11.54;49.91
68656;BME280;55638;51.122;13.606;2023-05-02T02:09:51;99944.50;;;11.53;50.03
68656;BME280;55638;51.122;13.606;2023-05-02T02:11:28;99948.03;;;11.53;50.50
68656;BME280;55638;51.122;13.606;2023-05-02T02:13:09;99948.88;;;11.54;50.26
68656;BME280;55638;51.122;13.606;2023-05-02T02:14:49;99955.28;;;11.53;50.41
68656;BME280;55638;51.122;13.606;2023-05-02T02:16:24;99957.88;;;11.54;50.02
68656;BME280;55638;51.122;13.606;2023-05-02T02:18:01;99962.38;;;11.54;49.98
68656;BME280;55638;51.122;13.606;2023-05-02T02:19:36;99964.22;;;11.53;49.91
68656;BME280;55638;51.122;13.606;2023-05-02T02:21:15;99960.69;;;11.53;50.35
68656;BME280;55638;51.122;13.606;2023-05-02T02:22:50;99965.22;;;11.52;50.06
68656;BME280;55638;51.122;13.606;2023-05-02T02:24:24;99974.91;;;11.55;49.90
68656;BME280;55638;51.122;13.606;2023-05-02T02:25:59;99977.88;;;11.52;50.33
68656;BME280;55638;51.122;13.606;2023-05-02T02:27:33;99967.09;;;11.52;50.06
68656;BME280;55638;51.122;13.606;2023-05-02T02:29:05;99971.47;;;11.53;50.03
68656;BME280;55638;51.122;13.606;2023-05-02T02:30:37;99968.94;;;11.51;49.88
68656;BME280;55638;51.122;13.606;2023-05-02T02:32:09;99978.84;;;11.51;49.97
68656;BME280;55638;51.122;13.606;2023-05-02T02:33:42;99980.59;;;11.52;49.94
68656;BME280;55638;51.122;13.606;2023-05-02T02:35:14;99978.84;;;11.51;49.82
68656;BME280;55638;51.122;13.606;2023-05-02T02:37:08;99981.97;;;11.46;50.96
68656;BME280;55638;51.122;13.606;2023-05-02T02:38:47;99982.56;;;11.50;50.21
68656;BME280;55638;51.122;13.606;2023-05-02T02:40:28;99980.84;;;11.49;50.78
68656;BME280;55638;51.122;13.606;2023-05-02T02:42:10;99980.84;;;11.49;50.21
68656;BME280;55638;51.122;13.606;2023-05-02T02:44:21;99990.94;;;11.47;50.31
68656;BME280;55638;51.122;13.606;2023-05-02T02:46:11;99992.50;;;11.49;49.69
68656;BME280;55638;51.122;13.606;2023-05-02T02:50:15;100005.84;;;11.51;49.71
68656;BME280;55638;51.122;13.606;2023-05-02T02:57:34;100009.97;;;11.45;50.12
68656;BME280;55638;51.122;13.606;2023-05-02T02:59:14;100016.94;;;11.48;50.04
68656;BME280;55638;51.122;13.606;2023-05-02T03:00:47;100021.34;;;11.49;49.66
68656;BME280;55638;51.122;13.606;2023-05-02T03:02:21;100020.63;;;11.47;49.80
68656;BME280;55638;51.122;13.606;2023-05-02T03:03:59;100022.63;;;11.45;49.88
68656;BME280;55638;51.122;13.606;2023-05-02T03:05:34;100027.13;;;11.44;49.65
68656;BME280;55638;51.122;13.606;2023-05-02T03:07:06;100025.44;;;11.43;49.99
68656;BME280;55638;51.122;13.606;2023-05-02T03:08:39;100022.06;;;11.41;49.69
68656;BME280;55638;51.122;13.606;2023-05-02T03:10:21;100029.25;;;11.41;49.92
68656;BME280;55638;51.122;13.606;2023-05-02T03:11:53;100037.34;;;11.41;49.72
68656;BME280;55638;51.122;13.606;2023-05-02T03:13:25;100033.97;;;11.39;49.60
68656;BME280;55638;51.122;13.606;2023-05-02T03:15:13;100027.13;;;11.34;49.74
68656;BME280;55638;51.122;13.606;2023-05-02T03:16:49;100035.22;;;11.34;49.58
68656;BME280;55638;51.122;13.606;2023-05-02T03:18:21;100039.91;;;11.32;49.49
68656;BME280;55638;51.122;13.606;2023-05-02T03:19:53;100037.47;;;11.29;49.62
68656;BME280;55638;51.122;13.606;2023-05-02T03:21:26;100042.16;;;11.27;49.51
68656;BME280;55638;51.122;13.606;2023-05-02T03:22:59;100042.41;;;11.24;49.43
68656;BME280;55638;51.122;13.606;2023-05-02T03:24:31;100037.28;;;11.21;49.51
68656;BME280;55638;51.122;13.606;2023-05-02T03:26:03;100033.91;;;11.19;49.42
68656;BME280;55638;51.122;13.606;2023-05-02T03:27:36;100045.81;;;11.17;49.47
68656;BME280;55638;51.122;13.606;2023-05-02T03:29:11;100051.47;;;11.13;49.56
68656;BME280;55638;51.122;13.606;2023-05-02T03:30:45;100046.22;;;11.12;49.54
68656;BME280;55638;51.122;13.606;2023-05-02T03:32:17;100047.47;;;11.08;49.64
68656;BME280;55638;51.122;13.606;2023-05-02T03:33:49;100056.56;;;11.07;49.53
68656;BME280;55638;51.122;13.606;2023-05-02T03:35:21;100051.44;;;11.04;49.54
68656;BME280;55638;51.122;13.606;2023-05-02T03:36:55;100052.53;;;11.01;49.53
68656;BME280;55638;51.122;13.606;2023-05-02T03:38:28;100059.06;;;10.99;49.83
68656;BME280;55638;51.122;13.606;2023-05-02T03:40:03;100063.59;;;10.98;49.70
68656;BME280;55638;51.122;13.606;2023-05-02T03:41:35;100053.06;;;10.95;49.69
68656;BME280;55638;51.122;13.606;2023-05-02T03:43:11;100058.63;;;10.94;49.64
68656;BME280;55638;51.122;13.606;2023-05-02T03:44:43;100059.63;;;10.93;49.68
68656;BME280;55638;51.122;13.606;2023-05-02T03:46:16;100061.59;;;10.91;49.66
68656;BME280;55638;51.122;13.606;2023-05-02T03:47:48;100052.06;;;10.86;49.76
68656;BME280;55638;51.122;13.606;2023-05-02T03:49:20;100055.72;;;10.85;49.61
68656;BME280;55638;51.122;13.606;2023-05-02T03:50:55;100064.97;;;10.83;49.69
68656;BME280;55638;51.122;13.606;2023-05-02T03:52:27;100063.38;;;10.80;49.69
68656;BME280;55638;51.122;13.606;2023-05-02T03:54:00;100071.59;;;10.79;49.73
68656;BME280;55638;51.122;13.606;2023-05-02T03:55:41;100071.00;;;10.75;50.01
68656;BME280;55638;51.122;13.606;2023-05-02T03:57:19;100073.84;;;10.74;49.74
68656;BME280;55638;51.122;13.606;2023-05-02T03:58:52;100078.50;;;10.72;49.71
68656;BME280;55638;51.122;13.606;2023-05-02T04:00:27;100083.19;;;10.70;49.71
68656;BME280;55638;51.122;13.606;2023-05-02T04:02:05;100084.16;;;10.69;49.90
68656;BME280;55638;51.122;13.606;2023-05-02T04:03:44;100082.53;;;10.66;49.98
68656;BME280;55638;51.122;13.606;2023-05-02T04:05:19;100087.91;;;10.66;49.84
68656;BME280;55638;51.122;13.606;2023-05-02T04:06:52;100083.66;;;10.63;49.86
68656;BME280;55638;51.122;13.606;2023-05-02T04:08:25;100095.41;;;10.62;49.91
68656;BME280;55638;51.122;13.606;2023-05-02T04:09:57;100098.25;;;10.61;49.97
68656;BME280;55638;51.122;13.606;2023-05-02T04:11:30;100104.50;;;10.61;50.16
68656;BME280;55638;51.122;13.606;2023-05-02T04:13:02;100102.81;;;10.60;50.14
68656;BME280;55638;51.122;13.606;2023-05-02T04:14:35;100109.03;;;10.61;50.13
68656;BME280;55638;51.122;13.606;2023-05-02T04:16:08;100109.16;;;10.59;50.38
68656;BME280;55638;51.122;13.606;2023-05-02T04:17:41;100109.88;;;10.61;50.10
68656;BME280;55638;51.122;13.606;2023-05-02T04:19:15;100113.44;;;10.62;50.08
68656;BME280;55638;51.122;13.606;2023-05-02T04:20:47;100119.81;;;10.61;50.34
68656;BME280;55638;51.122;13.606;2023-05-02T04:22:21;100116.13;;;10.62;50.41
68656;BME280;55638;51.122;13.606;2023-05-02T04:23:56;100116.88;;;10.64;50.47
68656;BME280;55638;51.122;13.606;2023-05-02T04:25:29;100122.13;;;10.65;50.38
68656;BME280;55638;51.122;13.606;2023-05-02T04:27:05;100122.03;;;10.67;50.43
68656;BME280;55638;51.122;13.606;2023-05-02T04:28:38;100129.88;;;10.70;50.44
68656;BME280;55638;51.122;13.606;2023-05-02T04:30:11;100131.56;;;10.71;50.47
68656;BME280;55638;51.122;13.606;2023-05-02T04:31:45;100133.00;;;10.75;50.61
68656;BME280;55638;51.122;13.606;2023-05-02T04:33:18;100140.97;;;10.77;50.41
68656;BME280;55638;51.122;13.606;2023-05-02T04:34:50;100139.72;;;10.81;50.56
68656;BME280;55638;51.122;13.606;2023-05-02T04:36:23;100140.31;;;10.84;50.40
68656;BME280;55638;51.122;13.606;2023-05-02T04:37:55;100144.44;;;10.88;50.32
68656;BME280;55638;51.122;13.606;2023-05-02T04:39:27;100148.72;;;10.91;50.32
68656;BME280;55638;51.122;13.606;2023-05-02T04:41:04;100151.91;;;10.96;50.47
68656;BME280;55638;51.122;13.606;2023-05-02T04:42:44;100159.59;;;11.01;50.25
68656;BME280;55638;51.122;13.606;2023-05-02T04:44:25;100153.94;;;11.04;50.28
68656;BME280;55638;51.122;13.606;2023-05-02T04:45:58;100161.59;;;11.08;50.36
68656;BME280;55638;51.122;13.606;2023-05-02T04:47:34;100159.53;;;11.12;50.17
68656;BME280;55638;51.122;13.606;2023-05-02T04:49:07;100163.66;;;11.16;50.29
68656;BME280;55638;51.122;13.606;2023-05-02T04:50:39;100156.16;;;11.20;50.13
68656;BME280;55638;51.122;13.606;2023-05-02T04:52:10;100159.44;;;11.23;50.08
68656;BME280;55638;51.122;13.606;2023-05-02T04:53:43;100162.59;;;11.28;50.02
68656;BME280;55638;51.122;13.606;2023-05-02T04:55:14;100168.72;;;11.30;50.08
68656;BME280;55638;51.122;13.606;2023-05-02T04:56:47;100168.31;;;11.35;50.07
68656;BME280;55638;51.122;13.606;2023-05-02T04:58:19;100167.06;;;11.39;50.05
68656;BME280;55638;51.122;13.606;2023-05-02T04:59:57;100168.50;;;11.43;49.94
68656;BME280;55638;51.122;13.606;2023-05-02T05:01:30;100173.50;;;11.48;49.87
68656;BME280;55638;51.122;13.606;2023-05-02T05:03:04;100172.34;;;11.50;49.86
68656;BME280;55638;51.122;13.606;2023-05-02T05:04:39;100180.06;;;11.55;49.95
68656;BME280;55638;51.122;13.606;2023-05-02T05:06:12;100181.78;;;11.56;49.85
68656;BME280;55638;51.122;13.606;2023-05-02T05:07:44;100187.75;;;11.59;49.71
68656;BME280;55638;51.122;13.606;2023-05-02T05:09:17;100184.78;;;11.63;49.85
68656;BME280;55638;51.122;13.606;2023-05-02T05:10:49;100188.06;;;11.66;49.71
68656;BME280;55638;51.122;13.606;2023-05-02T05:12:22;100192.19;;;11.70;49.52
68656;BME280;55638;51.122;13.606;2023-05-02T05:13:55;100187.53;;;11.72;49.58
68656;BME280;55638;51.122;13.606;2023-05-02T05:15:28;100201.63;;;11.76;49.73
68656;BME280;55638;51.122;13.606;2023-05-02T05:17:03;100197.81;;;11.78;49.55
68656;BME280;55638;51.122;13.606;2023-05-02T05:18:36;100199.13;;;11.84;49.60
68656;BME280;55638;51.122;13.606;2023-05-02T05:20:13;100200.72;;;11.87;49.58
68656;BME280;55638;51.122;13.606;2023-05-02T05:21:45;100207.53;;;11.91;49.66
68656;BME280;55638;51.122;13.606;2023-05-02T05:23:20;100211.53;;;11.96;49.66
68656;BME280;55638;51.122;13.606;2023-05-02T05:24:53;100221.78;;;12.02;49.64
68656;BME280;55638;51.122;13.606;2023-05-02T05:26:29;100214.97;;;12.08;49.68
68656;BME280;55638;51.122;13.606;2023-05-02T05:28:02;100211.59;;;12.16;49.61
68656;BME280;55638;51.122;13.606;2023-05-02T05:29:35;100221.72;;;12.23;49.49
68656;BME280;55638;51.122;13.606;2023-05-02T05:31:11;100224.72;;;12.30;49.52
68656;BME280;55638;51.122;13.606;2023-05-02T05:32:50;100225.75;;;12.39;49.21
68656;BME280;55638;51.122;13.606;2023-05-02T05:34:22;100224.88;;;12.48;49.14
68656;BME280;55638;51.122;13.606;2023-05-02T05:37:36;100225.19;;;12.64;49.26
68656;BME280;55638;51.122;13.606;2023-05-02T05:39:12;100226.09;;;12.74;49.16
68656;BME280;55638;51.122;13.606;2023-05-02T05:40:48;100232.38;;;12.85;49.21
68656;BME280;55638;51.122;13.606;2023-05-02T05:42:20;100229.66;;;12.94;49.18
68656;BME280;55638;51.122;13.606;2023-05-02T05:43:56;100225.09;;;13.05;48.91
68656;BME280;55638;51.122;13.606;2023-05-02T05:45:30;100225.09;;;13.14;48.96
68656;BME280;55638;51.122;13.606;2023-05-02T05:47:01;100233.03;;;13.26;48.62
68656;BME280;55638;51.122;13.606;2023-05-02T05:48:34;100229.47;;;13.35;48.41
68656;BME280;55638;51.122;13.606;2023-05-02T05:50:06;100236.56;;;13.45;48.29
68656;BME280;55638;51.122;13.606;2023-05-02T05:51:38;100238.41;;;13.55;48.07
68656;BME280;55638;51.122;13.606;2023-05-02T05:53:12;100242.94;;;13.64;47.84
68656;BME280;55638;51.122;13.606;2023-05-02T05:54:45;100244.91;;;13.72;47.48
68656;BME280;55638;51.122;13.606;2023-05-02T05:56:17;100243.38;;;13.79;47.58
68656;BME280;55638;51.122;13.606;2023-05-02T05:57:57;100247.88;;;13.88;47.00
68656;BME280;55638;51.122;13.606;2023-05-02T05:59:29;100251.00;;;13.93;46.97
68656;BME280;55638;51.122;13.606;2023-05-02T06:01:01;100253.13;;;13.99;46.95
68656;BME280;55638;51.122;13.606;2023-05-02T06:02:33;100256.22;;;14.04;46.94
68656;BME280;55638;51.122;13.606;2023-05-02T06:04:05;100254.25;;;14.06;46.76
68656;BME280;55638;51.122;13.606;2023-05-02T06:05:41;100251.94;;;14.11;46.46
68656;BME280;55638;51.122;13.606;2023-05-02T06:07:13;100263.34;;;14.15;46.54
68656;BME280;55638;51.122;13.606;2023-05-02T06:08:45;100266.59;;;14.19;46.45
68656;BME280;55638;51.122;13.606;2023-05-02T06:10:16;100266.31;;;14.22;46.47
68656;BME280;55638;51.122;13.606;2023-05-02T06:11:49;100272.09;;;14.27;46.45
68656;BME280;55638;51.122;13.606;2023-05-02T06:13:21;100273.53;;;14.31;46.61
68656;BME280;55638;51.122;13.606;2023-05-02T06:14:54;100289.22;;;14.37;46.38
68656;BME280;55638;51.122;13.606;2023-05-02T06:16:26;100279.59;;;14.43;46.17
68656;BME280;55638;51.122;13.606;2023-05-02T06:17:58;100280.00;;;14.48;46.10
68656;BME280;55638;51.122;13.606;2023-05-02T06:19:30;100301.09;;;14.54;45.99
68656;BME280;55638;51.122;13.606;2023-05-02T06:21:05;100287.06;;;14.58;45.59
68656;BME280;55638;51.122;13.606;2023-05-02T06:22:37;100301.94;;;14.64;45.32
68656;BME280;55638;51.122;13.606;2023-05-02T06:24:10;100301.75;;;14.66;45.08
68656;BME280;55638;51.122;13.606;2023-05-02T06:25:42;100305.19;;;14.68;45.15
68656;BME280;55638;51.122;13.606;2023-05-02T06:27:14;100306.59;;;14.72;45.07
68656;BME280;55638;51.122;13.606;2023-05-02T06:28:46;100311.72;;;14.75;44.88
68656;BME280;55638;51.122;13.606;2023-05-02T06:30:18;100317.84;;;14.77;45.06
68656;BME280;55638;51.122;13.606;2023-05-02T06:31:54;100313.97;;;14.79;45.19
68656;BME280;55638;51.122;13.606;2023-05-02T06:33:29;100317.25;;;14.83;45.22
68656;BME280;55638;51.122;13.606;2023-05-02T06:35:01;100318.63;;;14.87;45.11
68656;BME280;55638;51.122;13.606;2023-05-02T06:36:33;100325.47;;;14.91;45.05
68656;BME280;55638;51.122;13.606;2023-05-02T06:38:05;100326.84;;;14.95;44.97
68656;BME280;55638;51.122;13.606;2023-05-02T06:39:37;100328.41;;;14.98;44.77
68656;BME280;55638;51.122;13.606;2023-05-02T06:41:12;100332.69;;;15.00;45.00
68656;BME280;55638;51.122;13.606;2023-05-02T06:42:48;100333.09;;;15.05;44.65
68656;BME280;55638;51.122;13.606;2023-05-02T06:44:20;100340.06;;;15.08;44.55
68656;BME280;55638;51.122;13.606;2023-05-02T06:45:53;100346.06;;;15.12;44.23
68656;BME280;55638;51.122;13.606;2023-05-02T06:47:25;100339.91;;;15.10;44.06
68656;BME280;55638;51.122;13.606;2023-05-02T06:48:57;100352.34;;;15.12;44.00
68656;BME280;55638;51.122;13.606;2023-05-02T06:50:29;100343.34;;;15.12;43.84
68656;BME280;55638;51.122;13.606;2023-05-02T06:52:01;100349.63;;;15.12;44.11
68656;BME280;55638;51.122;13.606;2023-05-02T06:53:33;100357.47;;;15.15;44.32
68656;BME280;55638;51.122;13.606;2023-05-02T06:55:05;100360.84;;;15.17;44.35
68656;BME280;55638;51.122;13.606;2023-05-02T06:56:37;100355.13;;;15.20;44.18
68656;BME280;55638;51.122;13.606;2023-05-02T06:58:09;100364.22;;;15.29;43.80
68656;BME280;55638;51.122;13.606;2023-05-02T06:59:41;100362.88;;;15.33;44.00
68656;BME280;55638;51.122;13.606;2023-05-02T07:01:13;100364.13;;;15.39;43.69
68656;BME280;55638;51.122;13.606;2023-05-02T07:02:47;100373.53;;;15.44;43.22
68656;BME280;55638;51.122;13.606;2023-05-02T07:04:19;100367.38;;;15.42;43.05
68656;BME280;55638;51.122;13.606;2023-05-02T07:05:50;100375.06;;;15.47;43.40
68656;BME280;55638;51.122;13.606;2023-05-02T07:07:22;100381.38;;;15.47;43.29
68656;BME280;55638;51.122;13.606;2023-05-02T07:08:54;100378.47;;;15.49;43.46
68656;BME280;55638;51.122;13.606;2023-05-02T07:10:26;100383.06;;;15.48;42.99
68656;BME280;55638;51.122;13.606;2023-05-02T07:11:58;100385.06;;;15.46;42.73
68656;BME280;55638;51.122;13.606;2023-05-02T07:13:31;100386.22;;;15.44;42.84
68656;BME280;55638;51.122;13.606;2023-05-02T07:15:04;100391.84;;;15.42;42.56
68656;BME280;55638;51.122;13.606;2023-05-02T07:16:36;100397.88;;;15.36;42.70
68656;BME280;55638;51.122;13.606;2023-05-02T07:18:08;100398.50;;;15.30;42.89
68656;BME280;55638;51.122;13.606;2023-05-02T07:19:40;100401.69;;;15.25;42.18
68656;BME280;55638;51.122;13.606;2023-05-02T07:21:15;100405.16;;;15.18;42.19
68656;BME280;55638;51.122;13.606;2023-05-02T07:22:49;100401.34;;;15.11;42.27
68656;BME280;55638;51.122;13.606;2023-05-02T07:24:21;100399.69;;;15.00;42.31
68656;BME280;55638;51.122;13.606;2023-05-02T07:25:53;100408.75;;;14.91;42.60
68656;BME280;55638;51.122;13.606;2023-05-02T07:27:25;100409.34;;;14.84;43.06
68656;BME280;55638;51.122;13.606;2023-05-02T07:28:57;100410.78;;;14.79;43.06
68656;BME280;55638;51.122;13.606;2023-05-02T07:30:29;100412.69;;;14.69;43.05
68656;BME280;55638;51.122;13.606;2023-05-02T07:32:01;100406.88;;;14.64;43.12
68656;BME280;55638;51.122;13.606;2023-05-02T07:33:33;100421.69;;;14.59;43.08
68656;BME280;55638;51.122;13.606;2023-05-02T07:35:05;100422.16;;;14.55;43.13
68656;BME280;55638;51.122;13.606;2023-05-02T07:36:37;100426.47;;;14.48;43.29
68656;BME280;55638;51.122;13.606;2023-05-02T07:38:09;100426.75;;;14.45;43.54
68656;BME280;55638;51.122;13.606;2023-05-02T07:39:41;100425.50;;;14.39;43.60
68656;BME280;55638;51.122;13.606;2023-05-02T07:41:13;100429.34;;;14.36;43.66
68656;BME280;55638;51.122;13.606;2023-05-02T07:42:45;100434.22;;;14.33;43.38
68656;BME280;55638;51.122;13.606;2023-05-02T07:44:17;100430.66;;;14.32;43.58
68656;BME280;55638;51.122;13.606;2023-05-02T07:45:49;100435.38;;;14.30;43.58
68656;BME280;55638;51.122;13.606;2023-05-02T07:47:21;100432.81;;;14.29;43.23
68656;BME280;55638;51.122;13.606;2023-05-02T07:48:53;100439.38;;;14.26;43.67
68656;BME280;55638;51.122;13.606;2023-05-02T07:50:25;100435.09;;;14.24;43.75
68656;BME280;55638;51.122;13.606;2023-05-02T07:51:57;100439.66;;;14.23;43.94
68656;BME280;55638;51.122;13.606;2023-05-02T07:53:29;100435.25;;;14.22;44.48
68656;BME280;55638;51.122;13.606;2023-05-02T07:55:01;100441.22;;;14.26;44.69
68656;BME280;55638;51.122;13.606;2023-05-02T07:56:33;100451.50;;;14.32;45.19
68656;BME280;55638;51.122;13.606;2023-05-02T07:58:06;100451.19;;;14.45;45.12
68656;BME280;55638;51.122;13.606;2023-05-02T07:59:38;100451.69;;;14.58;44.95
68656;BME280;55638;51.122;13.606;2023-05-02T08:01:09;100452.25;;;14.71;44.67
68656;BME280;55638;51.122;13.606;2023-05-02T08:02:42;100457.06;;;14.87;44.29
68656;BME280;55638;51.122;13.606;2023-05-02T08:04:14;100460.28;;;15.00;44.25
68656;BME280;55638;51.122;13.606;2023-05-02T08:05:46;100463.34;;;15.15;43.97
68656;BME280;55638;51.122;13.606;2023-05-02T08:07:19;100460.97;;;15.30;43.99
68656;BME280;55638;51.122;13.606;2023-05-02T08:08:50;100459.75;;;15.42;43.94
68656;BME280;55638;51.122;13.606;2023-05-02T08:10:22;100469.25;;;15.56;43.68
68656;BME280;55638;51.122;13.606;2023-05-02T08:11:54;100461.56;;;15.69;43.84
68656;BME280;55638;51.122;13.606;2023-05-02T08:13:26;100469.19;;;15.84;43.67
68656;BME280;55638;51.122;13.606;2023-05-02T08:15:03;100472.50;;;15.95;43.50
68656;BME280;55638;51.122;13.606;2023-05-02T08:16:35;100472.13;;;16.08;42.90
68656;BME280;55638;51.122;13.606;2023-05-02T08:18:07;100469.63;;;16.15;42.84
68656;BME280;55638;51.122;13.606;2023-05-02T08:19:39;100484.28;;;16.22;42.97
68656;BME280;55638;51.122;13.606;2023-05-02T08:21:11;100479.94;;;16.29;42.60
68656;BME280;55638;51.122;13.606;2023-05-02T08:22:43;100485.63;;;16.36;42.65
68656;BME280;55638;51.122;13.606;2023-05-02T08:24:15;100480.41;;;16.42;42.39
68656;BME280;55638;51.122;13.606;2023-05-02T08:25:46;100486.22;;;16.47;42.11
68656;BME280;55638;51.122;13.606;2023-05-02T08:27:18;100486.59;;;16.53;41.81